Time;durP1;ratioP1;P1;durP2;ratioP2;P2;SDS_P1;SDS_P2;PMS_P1;PMS_P2;Temp;Humidity;BMP_temperature;BMP_pressure;BME280_temperature;BME280_humidity;BME280_pressure;Samples;Min_cycle;Max_cycle;Signal;HPM_P1;HPM_P2
2022/09/18 00:02:08;;;;;;;1.25;1.10;;;11.90;99.90;;;;;;5027144;28;20041;-49
2022/09/18 00:04:34;;;;;;;3.50;0.93;;;11.90;99.90;;;;;;5018452;28;20034;-53
2022/09/18 00:06:59;;;;;;;1.00;0.90;;;12.00;99.90;;;;;;5027222;28;20037;-51
2022/09/18 00:09:26;;;;;;;1.40;0.68;;;11.90;99.90;;;;;;5028247;28;20049;-50
2022/09/18 00:11:51;;;;;;;1.88;0.80;;;11.90;99.90;;;;;;5018510;28;20481;-54
2022/09/18 00:14:21;;;;;;;1.25;1.10;;;11.80;99.90;;;;;;5025472;28;20040;-53
2022/09/18 00:16:48;;;;;;;1.35;1.02;;;11.80;99.90;;;;;;5026727;28;20136;-54
2022/09/18 00:19:15;;;;;;;2.17;0.98;;;11.80;99.90;;;;;;5024884;28;20022;-53
2022/09/18 00:21:43;;;;;;;2.08;1.20;;;11.70;99.90;;;;;;5018165;28;20032;-51
2022/09/18 00:24:09;;;;;;;1.40;1.05;;;11.70;99.90;;;;;;5027455;28;20022;-52
2022/09/18 00:26:34;;;;;;;1.23;0.90;;;11.80;99.90;;;;;;4973084;28;20034;-51
2022/09/18 00:29:01;;;;;;;2.17;1.42;;;11.70;99.90;;;;;;4968290;28;20042;-54
2022/09/18 00:31:29;;;;;;;2.15;1.02;;;11.70;99.90;;;;;;4982947;28;20039;-51
2022/09/18 00:33:56;;;;;;;1.05;0.98;;;11.80;99.90;;;;;;4958086;28;20041;-52
2022/09/18 00:36:22;;;;;;;2.15;1.65;;;11.90;99.90;;;;;;4984489;28;20034;-52
2022/09/18 00:38:49;;;;;;;2.40;1.20;;;12.00;99.90;;;;;;4984103;28;20027;-50
2022/09/18 00:41:22;;;;;;;1.50;0.82;;;12.00;99.90;;;;;;4985061;28;20078;-53
2022/09/18 00:43:49;;;;;;;1.55;1.15;;;11.90;99.90;;;;;;4976561;28;20429;-51
2022/09/18 00:46:30;;;;;;;3.08;1.17;;;12.00;99.90;;;;;;4983385;28;20030;-54
2022/09/18 00:49:15;;;;;;;1.85;1.00;;;12.10;99.90;;;;;;4978949;28;20117;-51
2022/09/18 00:51:43;;;;;;;0.95;0.82;;;12.10;99.90;;;;;;4981807;28;20032;-50
2022/09/18 00:54:23;;;;;;;1.33;1.10;;;12.10;99.90;;;;;;4972245;28;20134;-54
2022/09/18 00:56:51;;;;;;;0.77;0.60;;;12.10;99.90;;;;;;4977931;28;20030;-54
2022/09/18 00:59:24;;;;;;;1.55;0.80;;;12.10;99.90;;;;;;4980801;28;20041;-51
2022/09/18 01:01:50;;;;;;;1.67;1.02;;;12.00;99.90;;;;;;4968531;28;20101;-51
2022/09/18 01:04:16;;;;;;;2.88;1.00;;;12.10;99.90;;;;;;4983191;28;20038;-53
2022/09/18 01:06:56;;;;;;;3.28;1.10;;;12.10;99.90;;;;;;5003253;28;20056;-51
2022/09/18 01:09:36;;;;;;;1.45;1.10;;;12.20;99.90;;;;;;5018210;28;20037;-50
2022/09/18 01:12:25;;;;;;;3.42;0.73;;;12.20;99.90;;;;;;5023381;28;20036;-51
2022/09/18 01:14:53;;;;;;;0.75;0.73;;;12.10;99.90;;;;;;5004348;28;20038;-53
2022/09/18 01:17:45;;;;;;;2.97;1.20;;;12.00;99.90;;;;;;5023932;28;20034;-51
2022/09/18 01:20:28;;;;;;;0.85;0.85;;;12.10;99.90;;;;;;5024627;28;20481;-53
2022/09/18 01:23:18;;;;;;;2.85;1.35;;;12.00;99.90;;;;;;5019784;28;20045;-50
2022/09/18 01:26:18;;;;;;;1.45;0.70;;;12.00;99.90;;;;;;5020447;28;20480;-52
2022/09/18 01:29:04;;;;;;;1.15;0.85;;;11.80;99.90;;;;;;5007753;28;20362;-52
2022/09/18 01:31:58;;;;;;;1.40;0.93;;;11.90;99.90;;;;;;5025763;28;20021;-54
2022/09/18 01:34:36;;;;;;;0.80;0.73;;;11.90;99.90;;;;;;4943940;28;20072;-52
2022/09/18 05:32:35;;;;;;;2.20;1.55;;;12.20;99.90;;;;;;4928382;29;20143;-53
2022/09/18 05:38:24;;;;;;;3.75;2.50;;;12.40;99.90;;;;;;4926659;29;20086;-50
2022/09/18 05:40:49;;;;;;;3.88;2.42;;;12.50;99.90;;;;;;4935458;29;20071;-52
2022/09/18 05:43:16;;;;;;;2.97;1.80;;;12.50;99.90;;;;;;4919354;29;20052;-52
2022/09/18 05:45:42;;;;;;;2.15;1.65;;;12.40;99.90;;;;;;4930938;29;20067;-54
2022/09/18 05:48:11;;;;;;;2.08;1.30;;;12.50;99.90;;;;;;4924219;29;20055;-50
2022/09/18 05:50:37;;;;;;;4.03;2.00;;;12.60;99.90;;;;;;4933583;29;20039;-54
2022/09/18 05:53:02;;;;;;;4.00;1.63;;;12.60;99.90;;;;;;4909189;29;20083;-54
2022/09/18 05:55:29;;;;;;;2.30;1.40;;;12.80;99.90;;;;;;4932982;29;20031;-55
2022/09/18 05:57:56;;;;;;;2.20;1.58;;;12.80;99.90;;;;;;4935548;29;20424;-51
2022/09/18 06:00:23;;;;;;;3.15;1.92;;;12.90;99.90;;;;;;4933141;29;20036;-51
2022/09/18 06:02:54;;;;;;;2.20;1.60;;;13.00;99.90;;;;;;4934397;29;20384;-50
2022/09/18 06:05:19;;;;;;;1.75;1.25;;;13.10;99.90;;;;;;4932754;29;20031;-55
2022/09/18 06:07:45;;;;;;;1.70;1.27;;;13.20;99.90;;;;;;4935911;29;20031;-52
2022/09/18 06:10:11;;;;;;;1.88;1.48;;;13.30;99.90;;;;;;4930302;29;20039;-54
2022/09/18 06:12:37;;;;;;;4.40;1.20;;;13.40;99.90;;;;;;4929422;29;20388;-55
2022/09/18 06:15:03;;;;;;;1.58;1.10;;;13.60;99.90;;;;;;4925828;29;20028;-54
2022/09/18 06:17:29;;;;;;;3.22;1.17;;;13.70;99.90;;;;;;4892424;29;20404;-55
2022/09/18 06:19:55;;;;;;;0.98;0.88;;;13.70;99.90;;;;;;4876822;29;20123;-53
2022/09/18 06:22:20;;;;;;;3.17;1.20;;;13.90;99.90;;;;;;4925513;29;20083;-54
2022/09/18 06:24:46;;;;;;;1.88;1.17;;;14.00;99.90;;;;;;4893864;29;20036;-52
2022/09/18 06:27:12;;;;;;;1.83;1.17;;;14.20;99.90;;;;;;4910260;29;20040;-50
2022/09/18 06:29:38;;;;;;;2.40;1.15;;;;;;;;;;4926348;29;20105;-52
2022/09/18 06:32:04;;;;;;;3.40;1.55;;;14.50;99.90;;;;;;4896464;29;20052;-51
2022/09/18 06:34:29;;;;;;;5.00;1.25;;;14.70;99.90;;;;;;4925868;29;20023;-51
2022/09/18 06:36:55;;;;;;;2.17;0.95;;;14.90;99.90;;;;;;4925958;29;20159;-50
2022/09/18 06:39:21;;;;;;;1.10;1.00;;;15.30;99.90;;;;;;4935531;29;20082;-51
2022/09/18 06:41:48;;;;;;;2.45;1.10;;;;;;;;;;4937772;29;20023;-50
2022/09/18 06:44:14;;;;;;;1.15;1.00;;;15.90;99.90;;;;;;4926917;29;20032;-52
2022/09/18 06:46:39;;;;;;;2.05;0.93;;;15.90;99.90;;;;;;4935265;29;20446;-51
2022/09/18 06:49:05;;;;;;;1.88;0.90;;;15.80;99.90;;;;;;4905000;29;20039;-50
2022/09/18 06:51:31;;;;;;;1.90;1.00;;;15.80;99.90;;;;;;4937895;29;20034;-50
2022/09/18 06:53:57;;;;;;;1.83;1.00;;;15.70;99.90;;;;;;4939944;29;20060;-51
2022/09/18 06:56:23;;;;;;;1.65;1.00;;;15.70;99.90;;;;;;4908985;29;20404;-50
2022/09/18 06:58:52;;;;;;;0.95;0.90;;;15.70;99.90;;;;;;4925304;29;20084;-50
2022/09/18 07:01:18;;;;;;;1.20;0.82;;;15.80;99.90;;;;;;4926466;29;20040;-51
2022/09/18 07:03:46;;;;;;;1.98;1.00;;;15.80;99.90;;;;;;4919616;29;20043;-51
2022/09/18 07:06:12;;;;;;;2.35;1.00;;;15.80;99.90;;;;;;4929046;29;20479;-51
2022/09/18 07:08:37;;;;;;;2.83;1.00;;;15.80;99.90;;;;;;4929201;29;20039;-50
2022/09/18 07:11:03;;;;;;;2.10;1.00;;;16.00;99.90;;;;;;4928378;29;20044;-50
2022/09/18 07:13:33;;;;;;;0.70;0.70;;;16.10;99.90;;;;;;4907951;29;20118;-51
2022/09/18 07:15:59;;;;;;;1.00;0.80;;;16.00;99.90;;;;;;4931083;29;20031;-50
2022/09/18 07:18:25;;;;;;;0.77;0.65;;;16.20;99.90;;;;;;4929720;29;20164;-51
2022/09/18 07:20:52;;;;;;;2.33;1.08;;;16.10;99.90;;;;;;4930913;29;20038;-50
2022/09/18 07:23:18;;;;;;;1.73;1.00;;;16.40;99.90;;;;;;4921787;29;20039;-50
2022/09/18 07:25:45;;;;;;;1.17;0.93;;;16.40;99.90;;;;;;4929438;29;20419;-50
2022/09/18 07:28:11;;;;;;;1.15;0.90;;;16.40;99.90;;;;;;4931209;29;20075;-50
2022/09/18 07:30:38;;;;;;;1.15;0.80;;;16.70;99.90;;;;;;4924266;29;20047;-50
2022/09/18 07:33:06;;;;;;;1.25;0.88;;;16.90;99.90;;;;;;4918694;29;20043;-51
2022/09/18 07:35:32;;;;;;;1.52;0.88;;;16.80;99.90;;;;;;4927901;29;20060;-50
2022/09/18 07:37:59;;;;;;;2.53;0.93;;;17.00;99.90;;;;;;4931027;29;20036;-51
2022/09/18 07:40:26;;;;;;;2.28;0.90;;;17.10;99.90;;;;;;4923229;29;20078;-50
2022/09/18 07:43:02;;;;;;;1.27;0.95;;;17.00;99.90;;;;;;4927653;29;20028;-50
2022/09/18 07:45:28;;;;;;;3.00;0.82;;;17.20;99.90;;;;;;4930868;29;20028;-51
2022/09/18 07:47:54;;;;;;;4.10;1.48;;;17.20;99.90;;;;;;4930848;29;20032;-51
2022/09/18 07:50:21;;;;;;;0.93;0.80;;;17.30;99.90;;;;;;4927380;29;20043;-51
2022/09/18 07:52:52;;;;;;;1.60;1.10;;;17.50;99.90;;;;;;4890038;29;20052;-51
2022/09/18 07:55:19;;;;;;;1.00;0.93;;;17.60;99.90;;;;;;4930450;29;20143;-51
2022/09/18 07:57:59;;;;;;;2.15;1.13;;;17.90;99.90;;;;;;4936466;29;20067;-50
2022/09/18 08:00:25;;;;;;;2.83;0.98;;;17.70;99.90;;;;;;4937294;29;20032;-51
2022/09/18 08:03:10;;;;;;;2.92;0.90;;;17.60;99.90;;;;;;4935575;29;20032;-51
2022/09/18 08:05:36;;;;;;;1.15;0.70;;;17.60;99.90;;;;;;4927658;29;20075;-51
2022/09/18 08:08:11;;;;;;;2.58;0.98;;;17.90;99.90;;;;;;4930694;29;20510;-51
2022/09/18 08:10:38;;;;;;;1.02;0.88;;;18.10;99.90;;;;;;4923956;29;20059;-51
2022/09/18 08:13:04;;;;;;;5.30;1.00;;;18.40;99.90;;;;;;4925504;29;20033;-51
2022/09/18 08:15:31;;;;;;;1.13;0.70;;;18.40;99.90;;;;;;4932030;29;20055;-50
2022/09/18 08:17:57;;;;;;;1.73;1.17;;;18.50;99.90;;;;;;4917936;29;20161;-51
2022/09/18 08:20:23;;;;;;;1.98;1.10;;;18.70;99.90;;;;;;4932460;29;20141;-51
2022/09/18 08:22:49;;;;;;;1.38;1.05;;;18.70;99.90;;;;;;4922571;29;20039;-49
2022/09/18 08:25:16;;;;;;;1.33;0.82;;;18.60;99.90;;;;;;4930163;29;20064;-51
2022/09/18 08:27:42;;;;;;;2.70;0.98;;;18.80;99.90;;;;;;4933143;29;20446;-50
2022/09/18 08:30:10;;;;;;;3.83;0.82;;;19.10;99.90;;;;;;4924874;29;20559;-50
2022/09/18 08:32:36;;;;;;;2.80;1.08;;;19.60;99.90;;;;;;4935487;29;20048;-51
2022/09/18 08:35:03;;;;;;;1.85;1.00;;;19.40;99.90;;;;;;4936000;29;20024;-50
2022/09/18 08:37:29;;;;;;;1.77;1.00;;;19.50;99.90;;;;;;4927393;29;20035;-50
2022/09/18 08:39:55;;;;;;;1.10;1.00;;;19.60;99.90;;;;;;4923478;29;21151;-50
2022/09/18 08:42:23;;;;;;;4.07;1.10;;;19.90;99.90;;;;;;4929890;29;20067;-50
2022/09/18 08:44:58;;;;;;;2.13;1.10;;;19.90;99.90;;;;;;4927036;29;20059;-50
2022/09/18 08:47:32;;;;;;;1.38;0.95;;;20.00;99.90;;;;;;4927320;29;20055;-49
2022/09/18 08:50:19;;;;;;;2.58;1.20;;;20.20;99.90;;;;;;4924986;29;20408;-50
2022/09/18 08:52:49;;;;;;;1.77;0.88;;;20.40;99.90;;;;;;4922338;29;20063;-49
2022/09/18 08:55:26;;;;;;;1.75;0.88;;;19.80;99.90;;;;;;4929011;29;20032;-50
2022/09/18 08:58:00;;;;;;;1.70;0.90;;;20.40;99.90;;;;;;4929534;29;20050;-50
2022/09/18 09:00:40;;;;;;;1.40;0.77;;;21.00;99.90;;;;;;4921541;29;20365;-50
2022/09/18 09:03:47;;;;;;;3.20;0.90;;;20.20;97.10;;;;;;4934851;29;20042;-50
2022/09/18 09:06:31;;;;;;;1.45;0.70;;;19.90;97.50;;;;;;4882022;29;20093;-50
2022/09/18 09:09:15;;;;;;;2.85;0.80;;;20.00;96.50;;;;;;4879661;29;20025;-51
2022/09/18 09:11:50;;;;;;;0.70;0.65;;;20.30;97.50;;;;;;4888659;29;20112;-48
2022/09/18 09:14:24;;;;;;;1.40;0.80;;;20.80;95.80;;;;;;4881969;29;20073;-50
2022/09/18 09:16:55;;;;;;;3.10;1.15;;;20.80;96.40;;;;;;4887174;29;20096;-51
2022/09/18 09:19:27;;;;;;;1.45;0.82;;;20.80;98.60;;;;;;4888170;29;20031;-49
2022/09/18 09:22:12;;;;;;;1.35;0.88;;;21.20;97.20;;;;;;4870627;29;20089;-49
2022/09/18 09:25:00;;;;;;;0.80;0.60;;;21.20;96.10;;;;;;4884518;29;20052;-50
2022/09/18 09:27:33;;;;;;;1.50;0.60;;;21.70;96.40;;;;;;4887009;29;20036;-50
2022/09/18 09:30:16;;;;;;;1.77;0.80;;;21.70;94.10;;;;;;4844940;29;20066;-51
2022/09/18 09:32:52;;;;;;;1.02;0.80;;;22.00;94.90;;;;;;4825968;29;20141;-52
2022/09/18 09:35:26;;;;;;;1.70;0.90;;;22.70;92.40;;;;;;4851461;29;20072;-50
2022/09/18 09:37:52;;;;;;;1.63;1.15;;;;;;;;;;4843547;29;20030;-50
2022/09/18 09:40:31;;;;;;;3.30;0.90;;;;;;;;;;4848767;29;20034;-50
2022/09/18 09:43:04;;;;;;;1.98;0.80;;;;;;;;;;4860821;29;20041;-50
2022/09/18 09:45:34;;;;;;;1.13;0.70;;;;;;;;;;4876871;29;20037;-50
2022/09/18 09:48:12;;;;;;;1.23;0.70;;;;;;;;;;4877657;29;20041;-50
2022/09/18 09:50:51;;;;;;;2.05;1.15;;;;;;;;;;4877151;29;20148;-50
2022/09/18 09:53:17;;;;;;;5.25;1.10;;;;;;;;;;4876946;29;20056;-50
2022/09/18 09:55:54;;;;;;;1.40;0.50;;;24.40;97.20;;;;;;4877785;29;20191;-50
2022/09/18 09:58:30;;;;;;;0.60;0.60;;;;;;;;;;4856663;29;20045;-49
2022/09/18 10:01:00;;;;;;;1.75;0.80;;;23.00;90.10;;;;;;4902032;29;20425;-50
2022/09/18 10:03:37;;;;;;;0.85;0.80;;;23.50;89.10;;;;;;4927630;29;20118;-50
2022/09/18 10:06:15;;;;;;;1.38;0.70;;;;;;;;;;4920939;29;20536;-49
2022/09/18 10:09:11;;;;;;;2.30;0.90;;;;;;;;;;4927550;29;20047;-50
2022/09/18 10:11:39;;;;;;;0.90;0.70;;;25.00;93.50;;;;;;4876206;29;20052;-50
2022/09/18 10:14:18;;;;;;;3.55;0.73;;;24.80;88.10;;;;;;4855488;29;20045;-50
2022/09/18 10:16:50;;;;;;;2.15;1.20;;;24.40;86.00;;;;;;4874994;29;20037;-49
2022/09/18 10:19:17;;;;;;;;;;;24.00;87.50;;;;;;4877433;29;20144;-51
2022/09/18 10:21:47;;;;;;;1.23;0.77;;;24.20;89.00;;;;;;4876697;29;20396;-51
2022/09/18 10:24:36;;;;;;;2.28;0.88;;;24.30;84.80;;;;;;4860283;29;20131;-52
2022/09/18 10:27:03;;;;;;;0.75;0.60;;;;;;;;;;4855880;29;20057;-51
2022/09/18 10:29:29;;;;;;;1.02;0.80;;;24.90;88.20;;;;;;4858745;29;20121;-51
2022/09/18 10:31:57;;;;;;;0.70;0.70;;;24.40;86.00;;;;;;4858282;29;20498;-51
2022/09/18 10:34:47;;;;;;;1.20;0.80;;;24.10;84.90;;;;;;4859166;29;20126;-51
2022/09/18 10:37:29;;;;;;;1.20;0.90;;;24.40;82.70;;;;;;4858219;29;20042;-51
2022/09/18 10:40:00;;;;;;;1.33;0.70;;;24.30;84.30;;;;;;4839493;29;20049;-51
2022/09/18 10:42:31;;;;;;;1.30;0.80;;;24.00;84.90;;;;;;4853761;29;20076;-50
2022/09/18 10:45:21;;;;;;;1.17;0.68;;;24.50;84.90;;;;;;4858759;29;20505;-51
2022/09/18 10:47:47;;;;;;;0.60;0.60;;;24.40;86.50;;;;;;4864794;29;20109;-50
2022/09/18 10:50:13;;;;;;;1.83;0.60;;;24.00;83.80;;;;;;4873917;29;20473;-51
2022/09/18 10:52:47;;;;;;;1.35;0.82;;;24.00;86.30;;;;;;4869317;29;20165;-51
2022/09/18 10:55:25;;;;;;;0.80;0.73;;;23.90;86.40;;;;;;4867700;29;20060;-51
2022/09/18 10:57:54;;;;;;;1.38;0.70;;;;;;;;;;4868496;29;20045;-52
2022/09/18 11:00:19;;;;;;;2.03;1.45;;;23.40;82.90;;;;;;4865323;29;20048;-52
2022/09/18 11:02:54;;;;;;;1.45;0.77;;;23.80;84.10;;;;;;4852895;29;20056;-51
2022/09/18 11:05:31;;;;;;;0.65;0.55;;;23.80;85.60;;;;;;4928632;29;20554;-51
2022/09/18 11:07:59;;;;;;;1.52;1.00;;;;;;;;;;4930641;29;20038;-51
2022/09/18 11:10:27;;;;;;;1.70;1.52;;;24.20;81.60;;;;;;4928205;29;20055;-50
2022/09/18 11:12:56;;;;;;;2.33;0.73;;;24.10;81.90;;;;;;4881335;29;20552;-50
2022/09/18 11:15:29;;;;;;;0.95;0.70;;;24.30;80.90;;;;;;4866838;29;20116;-50
2022/09/18 11:17:58;;;;;;;1.02;0.70;;;24.00;81.20;;;;;;4852939;29;20160;-51
2022/09/18 11:20:28;;;;;;;0.60;0.50;;;24.40;82.80;;;;;;4853071;29;20026;-50
2022/09/18 11:23:12;;;;;;;0.70;0.70;;;23.80;82.00;;;;;;4871007;29;20033;-49
2022/09/18 11:25:39;;;;;;;0.85;0.75;;;;;;;;;;4872854;29;20093;-49
2022/09/18 11:28:22;;;;;;;4.00;0.70;;;23.40;85.90;;;;;;4866182;29;20046;-51
2022/09/18 11:30:58;;;;;;;0.57;0.57;;;23.40;93.60;;;;;;4862522;29;20077;-50
2022/09/18 11:33:28;;;;;;;1.02;0.60;;;;;;;;;;4862002;29;20053;-49
2022/09/18 11:36:01;;;;;;;0.70;0.70;;;23.90;99.90;;;;;;4870363;29;20072;-49
2022/09/18 11:38:28;;;;;;;0.52;0.50;;;24.00;93.10;;;;;;4877976;29;20056;-50
2022/09/18 11:40:56;;;;;;;2.92;0.70;;;;;;;;;;4880067;29;20597;-50
2022/09/18 11:43:28;;;;;;;0.85;0.60;;;24.30;89.80;;;;;;4884753;29;20052;-49
2022/09/18 11:45:57;;;;;;;3.60;0.50;;;;;;;;;;4888294;29;20137;-50
2022/09/18 11:48:52;;;;;;;1.42;1.33;;;24.40;83.50;;;;;;4876235;29;20045;-50
2022/09/18 11:51:40;;;;;;;0.50;0.50;;;23.90;82.30;;;;;;4895867;29;20056;-50
2022/09/18 11:54:08;;;;;;;0.90;0.70;;;;;;;;;;4902763;29;20464;-50
2022/09/18 11:56:40;;;;;;;0.50;0.50;;;23.50;78.80;;;;;;4911720;29;20036;-50
2022/09/18 11:59:38;;;;;;;0.63;0.55;;;23.90;90.80;;;;;;4908946;29;20041;-50
2022/09/18 12:02:17;;;;;;;0.95;0.60;;;24.00;91.10;;;;;;4907575;29;20036;-50
2022/09/18 12:04:51;;;;;;;1.42;1.10;;;23.70;79.70;;;;;;4913838;29;20044;-50
2022/09/18 12:07:33;;;;;;;0.40;0.40;;;23.70;80.90;;;;;;4910040;29;20075;-50
2022/09/18 12:10:14;;;;;;;1.40;0.70;;;;;;;;;;4913246;29;20044;-50
2022/09/18 12:13:04;;;;;;;0.60;0.40;;;23.30;80.10;;;;;;4908937;29;20548;-50
2022/09/18 12:15:35;;;;;;;2.53;0.90;;;23.00;81.40;;;;;;4867001;29;20052;-49
2022/09/18 12:18:09;;;;;;;2.80;1.45;;;21.90;79.90;;;;;;4866445;29;20057;-49
2022/09/18 12:20:41;;;;;;;0.32;0.32;;;22.10;82.90;;;;;;4870506;29;20089;-49
2022/09/18 12:23:22;;;;;;;1.55;0.80;;;22.50;81.10;;;;;;4869656;29;20141;-49
2022/09/18 12:26:05;;;;;;;0.43;0.43;;;22.70;79.00;;;;;;4868467;29;20479;-50
2022/09/18 12:28:46;;;;;;;0.77;0.55;;;22.70;81.70;;;;;;4856093;29;20044;-50
2022/09/18 12:31:31;;;;;;;0.68;0.68;;;22.60;80.70;;;;;;4881956;29;20060;-49
2022/09/18 12:34:16;;;;;;;1.65;0.70;;;22.60;80.10;;;;;;4889316;29;20096;-49
2022/09/18 12:36:56;;;;;;;2.08;0.60;;;23.10;80.50;;;;;;4885504;29;20048;-49
2022/09/18 12:39:48;;;;;;;0.45;0.40;;;23.00;80.10;;;;;;4890016;29;20041;-50
2022/09/18 12:42:54;;;;;;;1.13;0.70;;;22.80;82.80;;;;;;4883165;29;20037;-49
2022/09/18 12:45:44;;;;;;;0.55;0.55;;;22.50;81.00;;;;;;4882703;29;20916;-50
2022/09/18 12:48:10;;;;;;;0.55;0.55;;;22.80;81.80;;;;;;4882991;29;20418;-50
2022/09/18 12:50:39;;;;;;;0.35;0.35;;;22.90;81.00;;;;;;4887891;29;20063;-50
2022/09/18 12:53:21;;;;;;;0.70;0.45;;;22.70;78.80;;;;;;4874657;29;20045;-49
2022/09/18 12:55:46;;;;;;;0.52;0.50;;;22.70;79.60;;;;;;4886861;29;20467;-50
2022/09/18 12:58:24;;;;;;;0.82;0.43;;;22.80;79.00;;;;;;4886496;29;20045;-49
2022/09/18 13:00:51;;;;;;;0.60;0.60;;;22.60;78.30;;;;;;4854590;29;20433;-49
2022/09/18 13:03:40;;;;;;;1.38;0.47;;;22.70;79.50;;;;;;4879877;29;20051;-50
2022/09/18 13:06:15;;;;;;;0.40;0.40;;;22.90;80.50;;;;;;4880940;29;20044;-50
2022/09/18 13:08:45;;;;;;;1.08;0.60;;;22.50;77.40;;;;;;4879479;29;20041;-50
2022/09/18 13:11:36;;;;;;;0.40;0.40;;;22.60;80.60;;;;;;4882566;29;20085;-50
2022/09/18 13:14:13;;;;;;;0.43;0.35;;;22.70;77.10;;;;;;4881606;29;20037;-50
2022/09/18 13:16:46;;;;;;;1.55;0.80;;;22.60;77.00;;;;;;4881538;29;20111;-49
2022/09/18 13:19:48;;;;;;;0.30;0.30;;;22.50;76.70;;;;;;4880148;29;20153;-50
2022/09/18 13:22:16;;;;;;;;;;;22.50;77.70;;;;;;4911233;29;20487;-49
2022/09/18 13:24:44;;;;;;;2.60;0.50;;;22.50;78.50;;;;;;4900555;29;19910;-50
2022/09/18 13:27:14;;;;;;;0.75;0.63;;;22.60;79.50;;;;;;4928055;29;20029;-50
2022/09/18 13:29:55;;;;;;;1.05;0.40;;;22.50;79.50;;;;;;4924737;29;20102;-50
2022/09/18 13:32:30;;;;;;;0.90;0.63;;;22.50;79.20;;;;;;4926396;29;20154;-50
2022/09/18 13:35:11;;;;;;;0.80;0.50;;;22.70;80.40;;;;;;4926570;29;20039;-50
2022/09/18 13:37:37;;;;;;;0.88;0.57;;;22.90;80.40;;;;;;4926562;29;20487;-49
2022/09/18 13:40:25;;;;;;;0.77;0.60;;;23.20;79.90;;;;;;4924613;29;20036;-50
2022/09/18 13:42:50;;;;;;;0.57;0.57;;;23.10;78.70;;;;;;4926661;29;20567;-50
2022/09/18 13:45:23;;;;;;;1.95;0.63;;;23.00;78.00;;;;;;4892500;29;20048;-51
2022/09/18 13:48:04;;;;;;;1.13;0.70;;;23.00;77.50;;;;;;4895228;29;20135;-49
2022/09/18 13:50:35;;;;;;;2.33;0.50;;;23.10;79.40;;;;;;4904752;29;20084;-50
2022/09/18 13:53:03;;;;;;;1.00;0.40;;;23.20;77.40;;;;;;4932029;29;20115;-49
2022/09/18 13:55:47;;;;;;;0.50;0.50;;;23.20;77.80;;;;;;4928519;29;20046;-49
2022/09/18 13:58:34;;;;;;;0.85;0.50;;;22.70;79.00;;;;;;4928053;29;20067;-49
2022/09/18 14:01:06;;;;;;;2.17;0.65;;;22.70;78.90;;;;;;4909225;29;20092;-50
2022/09/18 14:03:39;;;;;;;1.25;0.60;;;22.40;79.80;;;;;;4926104;29;20043;-49
2022/09/18 14:06:36;;;;;;;0.68;0.45;;;22.70;79.00;;;;;;4925931;29;20039;-49
2022/09/18 14:09:44;;;;;;;0.50;0.50;;;22.90;77.90;;;;;;4936688;29;20175;-50
2022/09/18 14:12:12;;;;;;;0.65;0.43;;;23.00;78.30;;;;;;4895136;29;20120;-49
2022/09/18 14:14:37;;;;;;;0.75;0.40;;;22.90;79.50;;;;;;4862693;29;20044;-49
2022/09/18 14:17:14;;;;;;;0.43;0.43;;;22.60;77.70;;;;;;4885817;29;20401;-49
2022/09/18 14:19:43;;;;;;;0.40;0.40;;;22.90;78.70;;;;;;4893208;29;20029;-50
2022/09/18 14:22:29;;;;;;;1.27;0.47;;;22.70;78.70;;;;;;4886077;29;20445;-50
2022/09/18 14:25:02;;;;;;;1.08;0.63;;;22.60;76.90;;;;;;4871130;29;20044;-50
2022/09/18 14:27:34;;;;;;;0.52;0.40;;;22.60;77.60;;;;;;4902295;29;20220;-51
2022/09/18 14:30:19;;;;;;;0.40;0.40;;;22.70;79.20;;;;;;4903069;29;20520;-50
2022/09/18 14:33:02;;;;;;;0.40;0.40;;;22.60;80.40;;;;;;4898542;29;20437;-50
2022/09/18 14:35:45;;;;;;;0.63;0.40;;;22.70;79.00;;;;;;4893205;29;20540;-50
2022/09/18 14:38:24;;;;;;;1.10;0.63;;;22.30;77.60;;;;;;4863241;29;20036;-50
2022/09/18 14:41:00;;;;;;;0.68;0.60;;;22.30;79.80;;;;;;4894651;29;20048;-50
2022/09/18 14:43:26;;;;;;;0.40;0.30;;;22.50;79.80;;;;;;4881533;29;20401;-51
2022/09/18 14:45:53;;;;;;;1.65;0.60;;;22.60;78.40;;;;;;4882405;29;20051;-51
2022/09/18 14:48:24;;;;;;;0.70;0.43;;;22.60;78.00;;;;;;4899256;29;20069;-50
2022/09/18 14:51:00;;;;;;;0.40;0.38;;;22.70;78.10;;;;;;4929271;29;20039;-51
2022/09/18 14:53:27;;;;;;;0.85;0.50;;;22.50;79.00;;;;;;4932139;29;20163;-51
2022/09/18 14:55:56;;;;;;;1.00;0.70;;;22.70;79.60;;;;;;4927717;29;20039;-50
2022/09/18 14:58:23;;;;;;;0.65;0.60;;;22.50;79.00;;;;;;4910646;29;20035;-51
2022/09/18 15:00:54;;;;;;;0.65;0.50;;;22.50;80.00;;;;;;4917975;29;20036;-50
2022/09/18 15:03:25;;;;;;;0.73;0.50;;;22.50;81.10;;;;;;4915089;29;20052;-50
2022/09/18 15:05:53;;;;;;;0.85;0.40;;;22.40;80.30;;;;;;4921622;29;20042;-50
2022/09/18 15:08:24;;;;;;;1.25;0.38;;;22.20;80.50;;;;;;4925295;29;20024;-51
2022/09/18 15:10:52;;;;;;;0.65;0.60;;;21.80;80.00;;;;;;4923199;29;20127;-50
2022/09/18 15:13:20;;;;;;;1.00;0.60;;;21.90;82.50;;;;;;4894030;29;20036;-50
2022/09/18 15:15:46;;;;;;;1.48;0.70;;;21.90;82.40;;;;;;4922896;29;20035;-51
2022/09/18 15:18:26;;;;;;;0.85;0.40;;;21.70;82.60;;;;;;4909579;29;20134;-50
2022/09/18 15:20:53;;;;;;;2.42;0.68;;;21.60;83.80;;;;;;4927352;29;20190;-51
2022/09/18 15:23:27;;;;;;;1.88;0.40;;;21.60;83.20;;;;;;4926773;29;20031;-50
2022/09/18 15:25:55;;;;;;;0.30;0.30;;;;;;;;;;4930648;29;20388;-51
2022/09/18 15:28:24;;;;;;;2.13;0.88;;;21.00;82.40;;;;;;4934486;29;20556;-50
2022/09/18 15:30:52;;;;;;;4.10;2.85;;;;;;;;;;4932357;29;20716;-51
2022/09/18 15:33:20;;;;;;;2.35;1.10;;;20.90;92.60;;;;;;4932973;29;20039;-50
2022/09/18 15:35:50;;;;;;;3.45;2.35;;;21.10;92.50;;;;;;4931788;29;20428;-51
2022/09/18 15:38:18;;;;;;;1.52;0.88;;;21.30;92.50;;;;;;4902227;29;20511;-51
2022/09/18 15:40:46;;;;;;;0.90;0.80;;;21.30;91.50;;;;;;4933580;29;20111;-50
2022/09/18 15:43:29;;;;;;;2.65;0.90;;;21.40;91.20;;;;;;4928707;29;20042;-50
2022/09/18 15:46:04;;;;;;;2.72;0.90;;;21.50;91.70;;;;;;4932778;29;20096;-50
2022/09/18 15:48:39;;;;;;;2.13;0.70;;;21.50;90.50;;;;;;4928598;29;20032;-50
2022/09/18 15:51:23;;;;;;;3.75;0.82;;;21.40;90.40;;;;;;4928344;29;20522;-50
2022/09/18 15:54:22;;;;;;;66.07;8.30;;;21.70;90.60;;;;;;4920801;29;20043;-49
2022/09/18 15:56:52;;;;;;;14.40;1.08;;;21.80;84.30;;;;;;4930052;29;20551;-50
2022/09/18 15:59:31;;;;;;;33.88;3.95;;;21.80;83.90;;;;;;4935006;29;20134;-49
2022/09/18 16:01:59;;;;;;;9.65;4.72;;;21.80;84.00;;;;;;4930159;29;20388;-50
2022/09/18 16:04:31;;;;;;;3.17;2.08;;;21.70;84.40;;;;;;4930253;29;20043;-50
2022/09/18 16:07:19;;;;;;;3.28;2.15;;;21.80;85.40;;;;;;4930327;29;20506;-50
2022/09/18 16:09:47;;;;;;;2.28;1.70;;;21.80;85.60;;;;;;4921802;29;20486;-51
2022/09/18 16:12:28;;;;;;;2.63;1.17;;;21.70;84.40;;;;;;4932254;29;20044;-50
2022/09/18 16:15:00;;;;;;;2.45;0.90;;;21.60;84.10;;;;;;4930167;29;20396;-51
2022/09/18 16:17:28;;;;;;;1.20;0.80;;;21.50;83.80;;;;;;4932017;29;20032;-51
2022/09/18 16:19:59;;;;;;;0.90;0.80;;;21.50;83.20;;;;;;4935830;29;20110;-50
2022/09/18 16:22:27;;;;;;;2.67;1.25;;;21.30;83.70;;;;;;4936006;29;20039;-50
2022/09/18 16:24:57;;;;;;;2.08;1.05;;;21.20;84.10;;;;;;4935879;29;20377;-51
2022/09/18 16:27:25;;;;;;;1.80;1.00;;;21.10;84.50;;;;;;4935830;29;20337;-52
2022/09/18 16:29:50;;;;;;;3.15;0.90;;;21.00;90.00;;;;;;4935503;29;20127;-51
2022/09/18 16:32:20;;;;;;;1.58;0.70;;;20.80;91.10;;;;;;4904541;29;20119;-52
2022/09/18 16:34:46;;;;;;;1.48;1.00;;;20.60;84.00;;;;;;4917133;29;20047;-52
2022/09/18 16:37:15;;;;;;;3.75;1.15;;;20.50;93.10;;;;;;4895581;29;20895;-51
2022/09/18 16:39:41;;;;;;;2.65;1.85;;;20.30;87.70;;;;;;4894567;29;20041;-50
2022/09/18 16:42:14;;;;;;;3.35;1.83;;;;;;;;;;4896880;29;20052;-49
2022/09/18 16:44:39;;;;;;;3.90;2.10;;;20.20;98.80;;;;;;4892856;29;20123;-50
2022/09/18 16:47:08;;;;;;;2.17;1.48;;;;;;;;;;4896183;29;20115;-51
2022/09/18 16:49:43;;;;;;;4.38;1.17;;;19.70;99.90;;;;;;4892977;29;20493;-50
2022/09/18 16:52:10;;;;;;;1.20;0.80;;;19.20;93.00;;;;;;4891169;29;20040;-51
2022/09/18 16:54:36;;;;;;;1.60;0.90;;;;;;;;;;4891348;29;20194;-51
2022/09/18 16:57:05;;;;;;;1.85;0.75;;;;;;;;;;4892663;29;20493;-50
2022/09/18 16:59:31;;;;;;;0.98;0.60;;;17.90;93.90;;;;;;4861546;29;20434;-50
2022/09/18 17:01:59;;;;;;;2.60;1.73;;;17.60;99.90;;;;;;4895655;29;20032;-48
2022/09/18 17:04:27;;;;;;;4.32;2.47;;;;;;;;;;4862746;29;20052;-51
2022/09/18 17:06:55;;;;;;;1.40;0.90;;;17.20;97.70;;;;;;4879029;29;20044;-52
2022/09/18 17:09:22;;;;;;;1.35;0.95;;;17.00;92.50;;;;;;4879396;29;20029;-49
2022/09/18 17:11:49;;;;;;;1.33;1.00;;;16.90;99.00;;;;;;4930622;29;20074;-50
2022/09/18 17:14:15;;;;;;;1.38;1.00;;;16.90;96.80;;;;;;4928136;29;20098;-49
2022/09/18 17:16:41;;;;;;;0.90;0.80;;;16.80;98.20;;;;;;4932932;29;20043;-49
2022/09/18 17:19:08;;;;;;;2.78;0.80;;;16.60;92.60;;;;;;4935539;29;20499;-51
2022/09/18 17:21:34;;;;;;;1.70;0.80;;;16.50;92.70;;;;;;4932284;29;20066;-51
2022/09/18 17:24:01;;;;;;;1.58;1.00;;;16.40;92.90;;;;;;4931825;29;20043;-51